createdAt,value
2023-02-17T00:01:18.563Z,98676.78
2023-02-17T00:03:48.284Z,98676.97
2023-02-17T00:06:16.033Z,98677.47
2023-02-17T00:08:42.532Z,98676.97
2023-02-17T00:11:09.009Z,98672.16
2023-02-17T00:13:35.488Z,98683.19
2023-02-17T00:16:22.323Z,98674.28
2023-02-17T00:18:52.427Z,98673.97
2023-02-17T00:21:19.875Z,98678.47
2023-02-17T00:23:47.096Z,98673.16
2023-02-17T00:26:14.849Z,98663.13
2023-02-17T00:28:41.328Z,98662.31
2023-02-17T00:31:18.871Z,98659.44
2023-02-17T00:33:45.493Z,98659.44
2023-02-17T00:36:13.690Z,98660.78
2023-02-17T00:38:40.190Z,98659.34
2023-02-17T00:41:06.714Z,98657.00
2023-02-17T00:43:33.206Z,98659.59
2023-02-17T00:45:59.716Z,98662.69
2023-02-17T00:48:26.288Z,98651.22
2023-02-17T00:50:52.850Z,98662.63
2023-02-17T00:53:19.344Z,98654.84
2023-02-17T00:55:45.820Z,98657.44
2023-02-17T00:58:12.316Z,98653.28
2023-02-17T01:00:38.787Z,98660.75
2023-02-17T01:03:05.274Z,98651.66
2023-02-17T01:05:32.002Z,98653.66
2023-02-17T01:08:04.597Z,98653.34
2023-02-17T01:10:31.074Z,98651.59
2023-02-17T01:12:57.591Z,98661.03
2023-02-17T01:15:24.068Z,98666.91
2023-02-17T01:17:50.575Z,98668.03
2023-02-17T01:20:17.048Z,98671.16
2023-02-17T01:22:43.526Z,98664.19
2023-02-17T01:25:10.041Z,98667.91
2023-02-17T01:27:36.938Z,98656.38
2023-02-17T01:30:04.229Z,98673.31
2023-02-17T01:32:30.749Z,98662.41
2023-02-17T01:34:57.212Z,98661.13
2023-02-17T01:37:23.691Z,98657.38
2023-02-17T01:39:50.436Z,98656.41
2023-02-17T01:42:17.510Z,98651.38
2023-02-17T01:45:23.793Z,98651.19
2023-02-17T01:47:51.670Z,98651.22
2023-02-17T01:50:18.189Z,98646.97
2023-02-17T01:52:44.667Z,98643.72
2023-02-17T01:55:12.965Z,98639.34
2023-02-17T01:57:39.470Z,98639.50
2023-02-17T02:00:07.081Z,98633.97
2023-02-17T02:02:33.978Z,98631.38
2023-02-17T02:05:00.756Z,98622.59
2023-02-17T02:07:30.581Z,98625.19
2023-02-17T02:09:57.957Z,98620.16
2023-02-17T02:12:28.314Z,98618.69
2023-02-17T02:14:57.283Z,98621.13
2023-02-17T02:17:52.219Z,98610.22
2023-02-17T02:20:42.571Z,98600.81
2023-02-17T02:23:08.866Z,98593.16
2023-02-17T02:26:00.151Z,98584.22
2023-02-17T02:28:36.503Z,98583.75
2023-02-17T02:31:44.811Z,98588.44
2023-02-17T02:34:22.389Z,98596.91
2023-02-17T02:36:55.214Z,98585.03
2023-02-17T02:39:21.825Z,98588.94
2023-02-17T02:42:01.934Z,98580.66
2023-02-17T02:44:28.484Z,98568.47
2023-02-17T02:47:06.254Z,98574.09
2023-02-17T02:49:33.749Z,98576.56
2023-02-17T02:52:12.886Z,98581.94
2023-02-17T02:55:24.583Z,98579.78
2023-02-17T02:58:21.178Z,98585.97
2023-02-17T03:01:04.006Z,98580.25
2023-02-17T03:03:37.143Z,98572.78
2023-02-17T03:06:12.601Z,98568.25
2023-02-17T03:08:43.098Z,98568.41
2023-02-17T03:11:09.554Z,98570.19
2023-02-17T03:13:39.366Z,98553.94
2023-02-17T03:16:07.255Z,98564.50
2023-02-17T03:18:34.478Z,98561.69
2023-02-17T03:21:11.618Z,98550.78
2023-02-17T03:23:38.106Z,98561.38
2023-02-17T03:26:04.982Z,98545.63
2023-02-17T03:28:31.665Z,98538.97
2023-02-17T03:30:58.213Z,98532.56
2023-02-17T03:33:24.961Z,98519.28
2023-02-17T03:35:51.437Z,98520.75
2023-02-17T03:38:17.901Z,98503.22
2023-02-17T03:40:44.402Z,98496.38
2023-02-17T03:43:10.871Z,98489.50
2023-02-17T03:45:37.697Z,98491.41
2023-02-17T03:48:04.481Z,98498.25
2023-02-17T03:50:31.139Z,98495.16
2023-02-17T03:52:57.613Z,98497.44
2023-02-17T03:55:24.067Z,98513.69
2023-02-17T03:57:50.523Z,98520.88
2023-02-17T04:00:17.212Z,98511.56
2023-02-17T04:02:44.283Z,98501.00
2023-02-17T04:05:10.872Z,98496.13
2023-02-17T04:07:37.611Z,98500.84
2023-02-17T04:10:06.289Z,98498.91
2023-02-17T04:12:33.672Z,98501.63
2023-02-17T04:15:00.159Z,98504.59
2023-02-17T04:17:26.630Z,98511.06
2023-02-17T04:19:53.101Z,98508.63
2023-02-17T04:22:19.562Z,98514.97
2023-02-17T04:24:46.030Z,98518.69
2023-02-17T04:27:12.515Z,98521.44
2023-02-17T04:29:38.980Z,98517.09
2023-02-17T04:32:05.475Z,98506.34
2023-02-17T04:34:31.982Z,98499.81
2023-02-17T04:36:58.450Z,98511.19
2023-02-17T04:39:24.928Z,98500.59
2023-02-17T04:41:51.718Z,98508.56
2023-02-17T04:44:18.223Z,98518.69
2023-02-17T04:46:44.696Z,98516.28
2023-02-17T04:49:11.216Z,98524.84
2023-02-17T04:51:37.722Z,98528.56
2023-02-17T04:54:04.507Z,98521.25
2023-02-17T04:56:30.965Z,98517.19
2023-02-17T04:58:57.478Z,98520.94
2023-02-17T05:01:24.014Z,98520.78
2023-02-17T05:03:50.518Z,98506.28
2023-02-17T05:06:17.537Z,98492.56
2023-02-17T05:08:44.002Z,98488.84
2023-02-17T05:11:10.464Z,98485.94
2023-02-17T05:13:36.970Z,98477.97
2023-02-17T05:16:03.697Z,98484.66
2023-02-17T05:18:30.355Z,98487.22
2023-02-17T05:20:56.839Z,98467.88
2023-02-17T05:23:23.494Z,98466.69
2023-02-17T05:25:49.997Z,98456.28
2023-02-17T05:28:16.517Z,98449.09
2023-02-17T05:30:43.056Z,98441.31
2023-02-17T05:33:09.571Z,98443.25
2023-02-17T05:35:36.127Z,98432.69
2023-02-17T05:38:02.891Z,98421.03
2023-02-17T05:40:29.365Z,98413.06
2023-02-17T05:42:55.814Z,98402.47
2023-02-17T05:45:22.273Z,98396.84
2023-02-17T05:47:48.732Z,98393.38
2023-02-17T05:50:15.194Z,98394.81
2023-02-17T05:52:41.687Z,98400.03
2023-02-17T05:55:08.272Z,98394.34
2023-02-17T05:57:34.729Z,98401.91
2023-02-17T06:00:01.205Z,98389.56
2023-02-17T06:02:27.702Z,98399.47
2023-02-17T06:04:54.348Z,98395.84
2023-02-17T06:07:21.061Z,98375.72
2023-02-17T06:09:47.526Z,98365.81
2023-02-17T06:12:13.995Z,98360.22
2023-02-17T06:14:40.480Z,98350.16
2023-02-17T06:17:06.996Z,98339.09
2023-02-17T06:19:33.469Z,98351.97
2023-02-17T06:21:59.928Z,98346.19
2023-02-17T06:24:26.476Z,98344.22
2023-02-17T06:26:52.976Z,98342.63
2023-02-17T06:29:19.469Z,98345.16
2023-02-17T06:31:46.000Z,98342.00
2023-02-17T06:34:12.546Z,98330.94
2023-02-17T06:36:39.016Z,98310.91
2023-02-17T06:39:05.480Z,98312.19
2023-02-17T06:41:31.947Z,98312.66
2023-02-17T06:43:58.412Z,98301.59
2023-02-17T06:46:24.886Z,98310.81
2023-02-17T06:48:51.351Z,98309.88
2023-02-17T06:51:18.064Z,98276.22
2023-02-17T06:53:44.524Z,98292.81
2023-02-17T06:56:11.001Z,98293.28
2023-02-17T06:58:37.758Z,98287.50
2023-02-17T07:01:04.451Z,98295.13
2023-02-17T07:03:31.653Z,98297.78
2023-02-17T07:05:58.765Z,98320.16
2023-02-17T07:08:25.345Z,98312.66
2023-02-17T07:10:51.868Z,98319.56
2023-02-17T07:13:18.336Z,98306.41
2023-02-17T07:15:44.835Z,98312.06
2023-02-17T07:18:11.292Z,98306.72
2023-02-17T07:20:39.259Z,98299.91
2023-02-17T07:23:05.868Z,98293.78
2023-02-17T07:25:32.421Z,98296.44
2023-02-17T07:27:59.708Z,98289.28
2023-02-17T07:30:26.241Z,98267.38
2023-02-17T07:32:52.753Z,98266.69
2023-02-17T07:35:19.504Z,98253.66
2023-02-17T07:37:45.974Z,98252.50
2023-02-17T07:40:12.755Z,98260.13
2023-02-17T07:42:39.217Z,98258.75
2023-02-17T07:45:06.267Z,98264.97
2023-02-17T07:47:33.248Z,98267.50
2023-02-17T07:49:59.742Z,98268.34
2023-02-17T07:52:26.265Z,98268.44
2023-02-17T07:54:52.755Z,98263.91
2023-02-17T07:57:19.227Z,98249.75
2023-02-17T07:59:46.434Z,98249.75
2023-02-17T08:02:13.865Z,98253.78
2023-02-17T08:04:40.385Z,98256.69
2023-02-17T08:07:06.892Z,98260.59
2023-02-17T08:09:51.943Z,98258.63
2023-02-17T08:12:38.163Z,98258.09
2023-02-17T08:15:06.208Z,98280.44
2023-02-17T08:17:32.718Z,98278.69
2023-02-17T08:20:05.792Z,98284.91
2023-02-17T08:22:34.857Z,98278.81
2023-02-17T08:25:01.648Z,98282.72
2023-02-17T08:27:28.105Z,98277.88
2023-02-17T08:29:55.823Z,98289.41
2023-02-17T08:32:22.474Z,98289.09
2023-02-17T08:34:49.361Z,98309.38
2023-02-17T08:37:15.828Z,98302.31
2023-02-17T08:39:42.303Z,98306.22
2023-02-17T08:42:09.058Z,98307.41
2023-02-17T08:44:36.004Z,98300.69
2023-02-17T08:47:02.527Z,98306.59
2023-02-17T08:49:31.955Z,98302.31
2023-02-17T08:51:59.014Z,98310.28
2023-02-17T08:54:25.576Z,98310.97
2023-02-17T08:56:52.065Z,98307.19
2023-02-17T08:59:18.537Z,98301.63
2023-02-17T09:01:45.065Z,98297.94
2023-02-17T09:04:12.139Z,98315.41
2023-02-17T09:06:40.982Z,98312.03
2023-02-17T09:09:07.945Z,98321.41
2023-02-17T09:11:34.463Z,98305.34
2023-02-17T09:14:00.967Z,98308.84
2023-02-17T09:16:27.478Z,98310.34
2023-02-17T09:18:54.050Z,98313.66
2023-02-17T09:21:20.735Z,98306.66
2023-02-17T09:23:47.787Z,98304.81
2023-02-17T09:26:15.135Z,98304.34
2023-02-17T09:28:41.618Z,98323.38
2023-02-17T09:31:12.594Z,98312.22
2023-02-17T09:33:40.301Z,98318.56
2023-02-17T09:36:07.796Z,98314.53
2023-02-17T09:38:34.476Z,98320.53
2023-02-17T09:41:08.321Z,98306.69
2023-02-17T09:43:34.774Z,98306.34
2023-02-17T09:46:07.809Z,98299.19
2023-02-17T09:48:34.533Z,98299.44
2023-02-17T09:51:04.629Z,98294.34
2023-02-17T09:53:40.809Z,98300.59
2023-02-17T09:56:09.871Z,98299.53
2023-02-17T09:58:57.024Z,98290.66
2023-02-17T10:01:26.108Z,98310.03
2023-02-17T10:03:56.346Z,98319.75
2023-02-17T10:06:25.743Z,98310.50
2023-02-17T10:09:06.361Z,98313.75
2023-02-17T10:11:35.433Z,98319.50
2023-02-17T10:14:36.386Z,98308.53
2023-02-17T10:17:07.033Z,98309.81
2023-02-17T10:19:36.688Z,98294.09
2023-02-17T10:22:16.027Z,98279.91
2023-02-17T10:24:42.558Z,98304.28
2023-02-17T10:27:16.003Z,98313.75
2023-02-17T10:30:08.176Z,98304.50
2023-02-17T10:32:42.058Z,98304.97
2023-02-17T10:35:14.785Z,98286.84
2023-02-17T10:37:54.857Z,98296.53
2023-02-17T10:40:25.436Z,98273.22
2023-02-17T10:42:55.071Z,98258.66
2023-02-17T10:45:45.090Z,98249.53
2023-02-17T10:48:16.960Z,98259.91
2023-02-17T10:50:43.695Z,98258.41
2023-02-17T10:53:24.995Z,98237.59
2023-02-17T10:56:02.351Z,98232.03
2023-02-17T10:58:35.765Z,98212.06
2023-02-17T11:01:02.705Z,98215.28
2023-02-17T11:03:29.921Z,98188.00
2023-02-17T11:06:00.796Z,98194.00
2023-02-17T11:08:36.751Z,98179.09
2023-02-17T11:11:05.208Z,98165.69
2023-02-17T11:13:40.678Z,98163.03
2023-02-17T11:16:07.573Z,98146.09
2023-02-17T11:18:36.076Z,98140.66
2023-02-17T11:21:08.230Z,98112.44
2023-02-17T11:23:34.872Z,98125.69
2023-02-17T11:26:16.316Z,98100.56
2023-02-17T11:28:42.797Z,98126.81
2023-02-17T11:31:22.762Z,98121.41
2023-02-17T11:33:49.551Z,98124.13
2023-02-17T11:36:27.196Z,98103.25
2023-02-17T11:38:53.675Z,98108.19
2023-02-17T11:41:20.351Z,98097.53
2023-02-17T11:43:52.693Z,98104.75
2023-02-17T11:46:31.781Z,98100.19
2023-02-17T11:49:04.644Z,98093.72
2023-02-17T11:51:59.902Z,98088.56
2023-02-17T11:54:32.993Z,98087.47
2023-02-17T11:57:18.552Z,98066.16
2023-02-17T11:59:47.967Z,98075.38
2023-02-17T12:02:18.354Z,98055.56
2023-02-17T12:05:05.854Z,98072.38
2023-02-17T12:07:45.487Z,98062.59
2023-02-17T12:10:33.734Z,98056.41
2023-02-17T12:13:14.408Z,98033.38
2023-02-17T12:16:06.576Z,98055.03
2023-02-17T12:19:01.174Z,98056.50
2023-02-17T12:21:41.082Z,98055.31
2023-02-17T12:24:13.001Z,98047.41
2023-02-17T12:26:50.720Z,98048.16
2023-02-17T12:29:31.562Z,98052.13
2023-02-17T12:32:39.791Z,98068.19
2023-02-17T12:35:28.564Z,98066.00
2023-02-17T12:38:00.899Z,98055.53
2023-02-17T12:40:33.025Z,98051.34
2023-02-17T12:43:14.478Z,98055.69
2023-02-17T12:45:42.880Z,98056.84
2023-02-17T12:48:31.469Z,98052.53
2023-02-17T12:51:04.017Z,98046.91
2023-02-17T12:53:39.925Z,98046.91
2023-02-17T12:56:20.293Z,98052.03
2023-02-17T12:58:46.606Z,98052.66
2023-02-17T13:01:18.453Z,98065.47
2023-02-17T13:03:44.964Z,98067.00
2023-02-17T13:06:11.272Z,98061.72
2023-02-17T13:08:46.928Z,98063.41
2023-02-17T13:11:26.551Z,98074.34
2023-02-17T13:13:53.011Z,98063.59
2023-02-17T13:16:19.532Z,98072.56
2023-02-17T13:18:50.049Z,98077.66
2023-02-17T13:21:20.431Z,98073.63
2023-02-17T13:24:04.563Z,98059.75
2023-02-17T13:26:38.115Z,98063.69
2023-02-17T13:29:21.150Z,98072.03
2023-02-17T13:31:53.981Z,98067.63
2023-02-17T13:34:27.626Z,98096.22
2023-02-17T13:36:54.340Z,98076.72
2023-02-17T13:39:27.160Z,98084.28
2023-02-17T13:41:58.077Z,98090.47
2023-02-17T13:44:40.317Z,98086.72
2023-02-17T13:47:18.360Z,98090.28
2023-02-17T13:49:51.945Z,98098.97
2023-02-17T13:52:22.001Z,98119.22
2023-02-17T13:54:59.358Z,98114.84
2023-02-17T13:57:30.078Z,98127.47
2023-02-17T14:00:24.492Z,98144.69
2023-02-17T14:02:59.258Z,98146.88
2023-02-17T14:05:31.716Z,98131.91
2023-02-17T14:07:59.965Z,98149.47
2023-02-17T14:10:26.652Z,98156.44
2023-02-17T14:12:53.517Z,98156.97
2023-02-17T14:15:22.754Z,98157.94
2023-02-17T14:17:49.233Z,98159.81
2023-02-17T14:20:29.441Z,98168.53
2023-02-17T14:23:07.367Z,98162.78
2023-02-17T14:25:35.930Z,98172.16
2023-02-17T14:28:02.734Z,98168.91
2023-02-17T14:30:34.892Z,98180.97
2023-02-17T14:33:16.127Z,98185.47
2023-02-17T14:35:51.585Z,98179.59
2023-02-17T14:38:22.307Z,98185.16
2023-02-17T14:40:49.081Z,98183.53
2023-02-17T14:43:15.604Z,98193.00
2023-02-17T14:45:42.075Z,98190.69
2023-02-17T14:48:08.555Z,98193.00
2023-02-17T14:50:35.167Z,98213.22
2023-02-17T14:53:01.645Z,98211.84
2023-02-17T14:55:38.904Z,98223.06
2023-02-17T14:58:05.447Z,98211.06
2023-02-17T15:00:31.906Z,98229.94
2023-02-17T15:02:58.424Z,98205.78
2023-02-17T15:05:24.919Z,98238.34
2023-02-17T15:07:51.409Z,98238.25
2023-02-17T15:10:24.810Z,98250.75
2023-02-17T15:12:51.361Z,98228.31
2023-02-17T15:15:17.939Z,98230.06
2023-02-17T15:17:44.682Z,98244.03
2023-02-17T15:20:11.908Z,98258.25
2023-02-17T15:22:41.598Z,98243.91
2023-02-17T15:25:15.066Z,98247.75
2023-02-17T15:27:41.520Z,98264.84
2023-02-17T15:30:12.626Z,98269.84
2023-02-17T15:32:39.145Z,98261.16
2023-02-17T15:35:27.299Z,98257.13
2023-02-17T15:37:53.804Z,98248.47
2023-02-17T15:40:22.091Z,98252.94
2023-02-17T15:42:54.532Z,98252.41
2023-02-17T15:45:21.006Z,98243.81
2023-02-17T15:47:47.641Z,98258.75
2023-02-17T15:50:22.870Z,98251.25
2023-02-17T15:52:50.037Z,98254.09
2023-02-17T15:55:18.021Z,98269.72
2023-02-17T15:57:46.774Z,98262.78
2023-02-17T16:00:26.705Z,98262.66
2023-02-17T16:02:53.488Z,98256.78
2023-02-17T16:05:21.281Z,98257.81
2023-02-17T16:07:48.078Z,98258.50
2023-02-17T16:10:16.722Z,98253.09
2023-02-17T16:12:43.269Z,98269.84
2023-02-17T16:15:17.658Z,98272.84
2023-02-17T16:17:44.137Z,98278.16
2023-02-17T16:20:25.959Z,98259.44
2023-02-17T16:22:52.704Z,98268.91
2023-02-17T16:25:19.757Z,98273.75
2023-02-17T16:27:46.905Z,98275.16
2023-02-17T16:30:25.075Z,98273.66
2023-02-17T16:32:52.401Z,98286.69
2023-02-17T16:35:20.920Z,98287.16
2023-02-17T16:38:15.654Z,98281.63
2023-02-17T16:40:47.240Z,98283.34
2023-02-17T16:43:15.387Z,98289.25
2023-02-17T16:45:50.663Z,98290.97
2023-02-17T16:48:17.187Z,98313.97
2023-02-17T16:50:43.650Z,98319.38
2023-02-17T16:53:11.913Z,98322.41
2023-02-17T16:55:38.397Z,98328.97
2023-02-17T16:58:09.734Z,98334.28
2023-02-17T17:00:36.186Z,98347.44
2023-02-17T17:03:02.688Z,98352.53
2023-02-17T17:05:29.251Z,98362.59
2023-02-17T17:07:55.945Z,98351.63
2023-02-17T17:10:24.889Z,98368.34
2023-02-17T17:12:51.403Z,98364.19
2023-02-17T17:15:18.217Z,98368.47
2023-02-17T17:17:52.946Z,98370.22
2023-02-17T17:20:31.931Z,98368.13
2023-02-17T17:22:59.545Z,98357.16
2023-02-17T17:25:26.502Z,98369.63
2023-02-17T17:27:53.043Z,98375.84
2023-02-17T17:30:21.589Z,98375.84
2023-02-17T17:32:48.206Z,98376.09
2023-02-17T17:35:14.965Z,98361.78
2023-02-17T17:37:41.451Z,98346.66
2023-02-17T17:40:10.686Z,98357.28
2023-02-17T17:42:37.640Z,98366.16
2023-02-17T17:45:04.220Z,98365.47
2023-02-17T17:47:31.062Z,98375.06
2023-02-17T17:49:57.724Z,98357.63
2023-02-17T17:52:24.361Z,98364.53
2023-02-17T17:54:51.146Z,98355.06
2023-02-17T17:57:17.640Z,98354.72
2023-02-17T17:59:44.183Z,98367.66
2023-02-17T18:02:10.671Z,98365.47
2023-02-17T18:04:37.162Z,98362.56
2023-02-17T18:07:03.715Z,98360.03
2023-02-17T18:09:32.411Z,98366.88
2023-02-17T18:12:00.443Z,98355.97
2023-02-17T18:14:26.989Z,98349.88
2023-02-17T18:16:53.453Z,98362.00
2023-02-17T18:19:19.928Z,98356.81
2023-02-17T18:21:47.710Z,98361.31
2023-02-17T18:24:14.236Z,98358.44
2023-02-17T18:26:40.686Z,98363.97
2023-02-17T18:29:07.223Z,98364.09
2023-02-17T18:31:33.773Z,98371.13
2023-02-17T18:34:00.291Z,98373.56
2023-02-17T18:36:26.830Z,98372.63
2023-02-17T18:38:53.367Z,98386.50
2023-02-17T18:41:24.048Z,98383.47
2023-02-17T18:43:50.652Z,98384.63
2023-02-17T18:46:17.154Z,98400.03
2023-02-17T18:48:43.695Z,98418.81
2023-02-17T18:51:11.621Z,98447.22
2023-02-17T18:53:38.562Z,98473.84
2023-02-17T18:56:10.485Z,98496.94
2023-02-17T18:58:37.198Z,98504.84
2023-02-17T19:01:03.681Z,98496.00
2023-02-17T19:03:30.231Z,98494.97
2023-02-17T19:05:56.693Z,98480.38
2023-02-17T19:08:23.612Z,98486.09
2023-02-17T19:10:53.526Z,98483.41
2023-02-17T19:13:20.003Z,98482.47
2023-02-17T19:15:46.470Z,98487.22
2023-02-17T19:18:12.949Z,98496.53
2023-02-17T19:20:39.784Z,98490.03
2023-02-17T19:23:06.256Z,98482.72
2023-02-17T19:25:32.770Z,98496.53
2023-02-17T19:27:59.404Z,98482.41
2023-02-17T19:30:26.052Z,98462.25
2023-02-17T19:32:52.538Z,98452.88
2023-02-17T19:35:19.028Z,98458.09
2023-02-17T19:37:45.498Z,98457.66
2023-02-17T19:40:12.045Z,98462.38
2023-02-17T19:42:40.099Z,98461.09
2023-02-17T19:45:07.023Z,98460.59
2023-02-17T19:47:33.630Z,98457.19
2023-02-17T19:50:00.149Z,98464.53
2023-02-17T19:52:26.961Z,98459.84
2023-02-17T19:54:53.470Z,98472.84
2023-02-17T19:57:19.963Z,98467.66
2023-02-17T19:59:46.468Z,98468.78
2023-02-17T20:02:14.446Z,98478.69
2023-02-17T20:04:41.469Z,98477.72
2023-02-17T20:07:07.960Z,98486.66
2023-02-17T20:09:34.472Z,98489.09
2023-02-17T20:12:00.953Z,98483.59
2023-02-17T20:14:27.438Z,98501.13
2023-02-17T20:16:55.494Z,98503.84
2023-02-17T20:19:22.039Z,98501.13
2023-02-17T20:21:48.531Z,98500.28
2023-02-17T20:24:15.083Z,98501.63
2023-02-17T20:26:43.918Z,98511.53
2023-02-17T20:29:10.566Z,98510.53
2023-02-17T20:31:37.293Z,98507.75
2023-02-17T20:34:12.895Z,98509.56
2023-02-17T20:36:39.360Z,98520.44
2023-02-17T20:39:06.122Z,98527.59
2023-02-17T20:41:32.568Z,98532.47
2023-02-17T20:44:02.153Z,98530.38
2023-02-17T20:46:29.546Z,98542.34
2023-02-17T20:48:56.138Z,98533.59
2023-02-17T20:51:22.780Z,98545.81
2023-02-17T20:53:49.673Z,98545.31
2023-02-17T20:56:18.295Z,98542.38
2023-02-17T20:58:45.073Z,98538.34
2023-02-17T21:01:11.714Z,98545.47
2023-02-17T21:03:38.482Z,98542.69
2023-02-17T21:06:06.551Z,98556.00
2023-02-17T21:08:33.195Z,98559.75
2023-02-17T21:10:59.681Z,98561.38
2023-02-17T21:13:26.429Z,98556.50
2023-02-17T21:15:53.790Z,98557.94
2023-02-17T21:18:20.304Z,98555.81
2023-02-17T21:20:46.768Z,98553.88
2023-02-17T21:23:13.483Z,98563.28
2023-02-17T21:25:40.169Z,98547.56
2023-02-17T21:28:06.632Z,98566.72
2023-02-17T21:30:33.180Z,98563.78
2023-02-17T21:33:00.640Z,98558.28
2023-02-17T21:35:27.133Z,98542.06
2023-02-17T21:37:54.696Z,98561.19
2023-02-17T21:40:21.163Z,98562.19
2023-02-17T21:43:06.341Z,98553.59
2023-02-17T21:45:37.288Z,98555.66
2023-02-17T21:48:04.201Z,98555.53
2023-02-17T21:50:30.664Z,98560.34
2023-02-17T21:52:57.115Z,98565.75
2023-02-17T21:55:23.795Z,98566.88
2023-02-17T21:57:50.260Z,98567.19
2023-02-17T22:00:16.975Z,98577.75
2023-02-17T22:02:44.338Z,98574.66
2023-02-17T22:05:11.113Z,98580.16
2023-02-17T22:07:37.568Z,98595.72
2023-02-17T22:10:05.189Z,98586.63
2023-02-17T22:12:31.655Z,98585.47
2023-02-17T22:14:58.176Z,98584.03
2023-02-17T22:17:24.638Z,98572.50
2023-02-17T22:19:51.177Z,98569.94
2023-02-17T22:22:17.642Z,98580.31
2023-02-17T22:24:44.170Z,98595.22
2023-02-17T22:27:10.729Z,98598.44
2023-02-17T22:29:37.198Z,98591.97
2023-02-17T22:32:03.878Z,98599.47
2023-02-17T22:34:30.530Z,98596.88
2023-02-17T22:36:56.983Z,98600.88
2023-02-17T22:39:23.513Z,98595.16
2023-02-17T22:41:49.992Z,98589.16
2023-02-17T22:44:16.467Z,98596.94
2023-02-17T22:46:42.920Z,98619.06
2023-02-17T22:49:09.416Z,98616.16
2023-02-17T22:51:38.065Z,98617.44
2023-02-17T22:54:04.984Z,98612.91
2023-02-17T22:56:31.503Z,98609.00
2023-02-17T22:59:00.817Z,98601.84
2023-02-17T23:01:28.358Z,98612.19
2023-02-17T23:03:55.059Z,98605.41
2023-02-17T23:06:30.241Z,98605.34
2023-02-17T23:08:56.764Z,98600.16
2023-02-17T23:11:44.507Z,98596.13
2023-02-17T23:14:11.456Z,98590.03
2023-02-17T23:16:37.927Z,98597.50
2023-02-17T23:19:08.654Z,98601.84
2023-02-17T23:21:35.535Z,98596.75
2023-02-17T23:24:02.097Z,98603.28
2023-02-17T23:26:28.554Z,98599.63
2023-02-17T23:28:55.045Z,98591.78
2023-02-17T23:31:21.693Z,98591.13
2023-02-17T23:33:48.218Z,98597.84
2023-02-17T23:36:15.058Z,98606.34
2023-02-17T23:38:41.540Z,98603.44
2023-02-17T23:41:08.038Z,98607.31
2023-02-17T23:43:34.503Z,98602.34
2023-02-17T23:46:01.120Z,98610.06
2023-02-17T23:48:27.658Z,98600.59
2023-02-17T23:51:01.449Z,98603.66
2023-02-17T23:53:28.166Z,98598.25
2023-02-17T23:56:25.444Z,98600.97
2023-02-17T23:58:52.037Z,98597.34
